Time;durP1;ratioP1;P1;durP2;ratioP2;P2;SDS_P1;SDS_P2;PMS_P1;PMS_P2;Temp;Humidity;BMP_temperature;BMP_pressure;BME280_temperature;BME280_humidity;BME280_pressure;Samples;Min_cycle;Max_cycle;Signal;HPM_P1;HPM_P2
2021/12/20 11:03:49;;;;;;;3.37;1.37;;;1.20;99.90;;;;;;4447375;32;20269;-72
2021/12/20 11:10:29;;;;;;;;;;;;;;;;;;;;;
2021/12/20 11:22:07;;;;;;;1.57;1.10;;;1.30;99.90;;;;;;4356966;33;20269;-69
2021/12/20 11:24:50;;;;;;;1.87;1.23;;;1.30;99.90;;;;;;4316503;33;20217;-69
2021/12/20 11:27:42;;;;;;;1.57;1.10;;;1.40;99.90;;;;;;4316621;33;20177;-70
2021/12/20 11:30:16;;;;;;;1.43;1.20;;;1.50;99.90;;;;;;4316315;33;20543;-70
2021/12/20 11:33:33;;;;;;;;;;;;;;;;;;;;;
2021/12/20 11:39:50;;;;;;;1.70;0.90;;;1.80;99.90;;;;;;4300567;33;20241;-72
2021/12/20 11:42:18;;;;;;;1.13;0.93;;;1.70;99.90;;;;;;4289136;33;20511;-69
2021/12/20 11:44:48;;;;;;;0.90;0.90;;;1.90;99.90;;;;;;4312805;33;20621;-68
2021/12/20 11:47:33;;;;;;;1.00;0.90;;;2.00;99.90;;;;;;4315259;33;20161;-70
2021/12/20 11:50:15;;;;;;;1.80;0.90;;;1.90;99.90;;;;;;4303080;33;20527;-70
2021/12/20 11:52:47;;;;;;;1.60;1.10;;;1.80;99.90;;;;;;4326444;33;20177;-70
2021/12/20 11:55:29;;;;;;;1.20;1.10;;;1.60;99.90;;;;;;4303146;33;20186;-70
2021/12/20 11:58:16;;;;;;;3.57;1.10;;;1.40;99.90;;;;;;4312924;33;20161;-69
2021/12/20 12:00:55;;;;;;;2.57;1.10;;;1.40;99.90;;;;;;4322975;33;20229;-69
2021/12/20 12:03:26;;;;;;;1.07;0.90;;;1.40;99.90;;;;;;4344531;33;20242;-69
2021/12/20 12:05:58;;;;;;;1.17;1.07;;;1.30;99.90;;;;;;4344981;33;20214;-68
2021/12/20 12:08:48;;;;;;;1.03;1.00;;;1.20;99.90;;;;;;4357567;33;20357;-68
2021/12/20 12:11:15;;;;;;;1.53;1.10;;;1.00;99.90;;;;;;4344474;33;20176;-68
2021/12/20 12:14:00;;;;;;;1.57;0.87;;;0.90;99.90;;;;;;4337746;33;20192;-68
2021/12/20 12:17:02;;;;;;;1.83;1.27;;;0.90;99.90;;;;;;4379024;32;20162;-69
2021/12/20 12:19:51;;;;;;;3.77;1.20;;;0.80;99.90;;;;;;4425337;32;20544;-69
2021/12/20 12:22:42;;;;;;;1.87;1.23;;;0.70;99.90;;;;;;4425827;32;20178;-69
2021/12/20 12:25:49;;;;;;;2.07;1.10;;;0.60;99.90;;;;;;4425519;32;20245;-69
2021/12/20 12:28:20;;;;;;;2.67;1.23;;;0.60;99.90;;;;;;4411269;32;20186;-69
2021/12/20 12:31:03;;;;;;;2.50;1.57;;;0.60;99.90;;;;;;4401521;32;20218;-70
2021/12/20 12:33:44;;;;;;;3.77;1.17;;;0.60;99.90;;;;;;4389903;32;20260;-69
2021/12/20 12:36:39;;;;;;;3.33;1.30;;;0.60;99.90;;;;;;4412061;32;20214;-69
2021/12/20 12:39:21;;;;;;;1.53;1.30;;;0.50;99.90;;;;;;4408437;32;20178;-69
2021/12/20 12:42:00;;;;;;;1.30;1.20;;;0.40;99.90;;;;;;4408311;32;20225;-69
2021/12/20 12:44:30;;;;;;;1.50;1.40;;;0.30;99.90;;;;;;4408179;32;20601;-69
2021/12/20 12:47:13;;;;;;;1.90;1.53;;;0.30;99.90;;;;;;4409560;32;20186;-68
2021/12/20 12:49:51;;;;;;;1.90;1.33;;;0.30;99.90;;;;;;4408051;32;20515;-69
2021/12/20 12:52:25;;;;;;;2.63;1.50;;;0.20;99.90;;;;;;4409534;32;20178;-69
2021/12/20 12:55:12;;;;;;;1.73;1.40;;;0.20;99.90;;;;;;4407663;32;20166;-69
2021/12/20 12:57:54;;;;;;;2.27;1.53;;;0.20;99.90;;;;;;4413907;32;20178;-69
2021/12/20 13:00:35;;;;;;;2.00;1.43;;;0.20;99.90;;;;;;4423207;32;20236;-68
2021/12/20 13:03:15;;;;;;;1.70;1.43;;;0.20;99.90;;;;;;4424428;32;20155;-68
2021/12/20 13:05:57;;;;;;;1.50;1.40;;;0.10;99.90;;;;;;4423731;32;20177;-69
2021/12/20 13:08:52;;;;;;;2.83;1.57;;;0.10;99.90;;;;;;4424865;32;20131;-68
2021/12/20 13:11:23;;;;;;;2.00;1.33;;;0.10;99.90;;;;;;4423662;32;20247;-69
2021/12/20 13:14:14;;;;;;;1.40;1.30;;;0.20;99.90;;;;;;4422805;32;20181;-68
2021/12/20 13:17:01;;;;;;;3.07;1.40;;;0.10;99.90;;;;;;4424087;32;20428;-68
2021/12/20 13:19:35;;;;;;;1.67;1.43;;;0.10;99.90;;;;;;4422983;32;20227;-68
2021/12/20 13:22:04;;;;;;;2.23;1.70;;;0.10;99.90;;;;;;4424184;32;20160;-69
2021/12/20 13:24:33;;;;;;;2.23;1.60;;;0.10;99.90;;;;;;4424519;32;20417;-69
2021/12/20 13:27:08;;;;;;;1.73;1.40;;;0.10;99.90;;;;;;4423784;32;20189;-67
2021/12/20 13:29:38;;;;;;;1.87;1.50;;;0.10;99.90;;;;;;4422670;32;20227;-67
2021/12/20 13:32:07;;;;;;;2.57;1.63;;;0.10;99.90;;;;;;4401555;32;20278;-67
2021/12/20 13:34:36;;;;;;;1.60;1.50;;;0.10;99.90;;;;;;4409541;32;20142;-67
2021/12/20 13:37:10;;;;;;;2.77;1.60;;;0.10;99.90;;;;;;4408027;32;20188;-66
2021/12/20 13:39:38;;;;;;;7.07;4.10;;;0.00;99.90;;;;;;4407533;32;20234;-67
2021/12/20 13:42:10;;;;;;;7.17;2.50;;;0.00;99.90;;;;;;4410485;32;20201;-67
2021/12/20 13:44:38;;;;;;;2.50;2.03;;;0.00;99.90;;;;;;4407607;32;20194;-67
2021/12/20 13:47:16;;;;;;;9.37;5.60;;;0.00;99.90;;;;;;4409024;32;20163;-67
2021/12/20 13:49:44;;;;;;;6.03;4.87;;;0.00;99.90;;;;;;4407706;32;20280;-66
2021/12/20 13:52:12;;;;;;;2.80;2.50;;;-0.10;99.90;;;;;;4407895;32;20184;-67
2021/12/20 13:54:46;;;;;;;2.03;1.60;;;-0.10;99.90;;;;;;4407686;32;20182;-67
2021/12/20 13:57:16;;;;;;;4.77;3.63;;;-0.10;99.90;;;;;;4400637;32;20217;-66
2021/12/20 13:59:54;;;;;;;5.70;4.00;;;-0.10;99.90;;;;;;4407658;32;20236;-67
2021/12/20 14:02:23;;;;;;;4.27;2.17;;;-0.20;99.90;;;;;;4407906;32;20430;-67
2021/12/20 14:04:54;;;;;;;2.23;1.90;;;-0.20;99.90;;;;;;4407270;32;20201;-67
2021/12/20 14:07:25;;;;;;;3.10;1.90;;;-0.20;99.90;;;;;;4408125;32;20175;-67
2021/12/20 14:10:31;;;;;;;2.87;2.03;;;-0.20;99.90;;;;;;4408927;32;20189;-70
2021/12/20 14:13:11;;;;;;;291.63;57.80;;;-0.30;99.90;;;;;;4407384;32;20225;-67
2021/12/20 14:15:44;;;;;;;58.17;18.27;;;-0.30;99.90;;;;;;4406716;32;20178;-67
2021/12/20 14:18:30;;;;;;;124.77;47.83;;;-0.30;99.90;;;;;;4408178;32;20139;-67
2021/12/20 14:21:10;;;;;;;12.10;6.07;;;-0.30;99.90;;;;;;4407365;32;20186;-67
2021/12/20 14:23:52;;;;;;;3.90;2.00;;;-0.40;99.90;;;;;;4406871;32;20182;-67
2021/12/20 14:26:29;;;;;;;2.03;1.47;;;-0.50;99.90;;;;;;4407658;32;20196;-68
2021/12/20 14:29:07;;;;;;;1.50;1.23;;;-0.50;99.90;;;;;;4407404;32;20197;-68
2021/12/20 14:31:40;;;;;;;3.87;1.53;;;-0.60;99.90;;;;;;4399990;32;20234;-67
2021/12/20 14:34:11;;;;;;;3.40;1.70;;;-0.60;99.90;;;;;;4406655;32;20198;-68
2021/12/20 14:36:41;;;;;;;2.83;1.70;;;-0.60;99.90;;;;;;4407512;32;20182;-68
2021/12/20 14:39:20;;;;;;;2.30;1.60;;;-0.70;99.90;;;;;;4408912;32;20190;-68
2021/12/20 14:41:56;;;;;;;3.43;1.60;;;-0.80;99.90;;;;;;4407678;32;20217;-69
2021/12/20 14:44:42;;;;;;;3.37;1.60;;;-0.90;99.90;;;;;;4407114;32;20261;-68
2021/12/20 14:49:49;;;;;;;2.63;1.60;;;-1.00;99.90;;;;;;4407448;32;20178;-68
2021/12/20 14:52:25;;;;;;;2.30;1.67;;;-1.00;99.90;;;;;;4408121;32;20235;-68
2021/12/20 14:54:55;;;;;;;1.73;1.60;;;-1.00;99.90;;;;;;4408193;32;20433;-68
2021/12/20 14:57:24;;;;;;;2.00;1.67;;;-1.10;99.90;;;;;;4406801;32;20194;-69
2021/12/20 14:59:52;;;;;;;4.17;1.60;;;-1.10;99.90;;;;;;4409367;32;20147;-68
2021/12/20 15:02:29;;;;;;;2.20;1.60;;;-1.20;99.90;;;;;;4407160;32;20186;-68
2021/12/20 15:04:59;;;;;;;2.30;1.60;;;-1.20;99.90;;;;;;4406737;32;20178;-68
2021/12/20 15:07:26;;;;;;;2.83;1.60;;;-1.30;99.90;;;;;;4406666;32;20423;-68
2021/12/20 15:09:54;;;;;;;1.73;1.50;;;-1.30;99.90;;;;;;4408451;32;20262;-68
2021/12/20 15:12:22;;;;;;;1.90;1.70;;;-1.40;99.90;;;;;;4406949;32;20180;-68
2021/12/20 15:14:49;;;;;;;3.97;1.80;;;-1.40;99.90;;;;;;4391372;32;20436;-68
2021/12/20 15:17:16;;;;;;;2.47;1.60;;;-1.40;99.90;;;;;;4392880;32;20607;-68
2021/12/20 15:19:44;;;;;;;3.30;1.87;;;-1.40;99.90;;;;;;4391473;32;20185;-68
2021/12/20 15:22:11;;;;;;;3.57;1.90;;;-1.50;99.90;;;;;;4391538;32;20205;-68
2021/12/20 15:24:39;;;;;;;2.00;1.73;;;-1.60;99.90;;;;;;4391757;32;20175;-68
2021/12/20 15:27:11;;;;;;;2.87;1.67;;;-1.60;99.90;;;;;;4391347;32;20172;-68
2021/12/20 15:29:44;;;;;;;4.37;1.87;;;-1.70;99.90;;;;;;4392796;32;20233;-68
2021/12/20 15:32:11;;;;;;;2.80;1.87;;;-1.70;99.90;;;;;;4391275;32;20182;-68
2021/12/20 15:34:39;;;;;;;3.23;1.80;;;-1.80;99.90;;;;;;4391988;32;20175;-68
2021/12/20 15:37:06;;;;;;;4.10;1.80;;;-1.80;99.90;;;;;;4407089;32;20179;-67
2021/12/20 15:39:34;;;;;;;2.67;1.80;;;-1.90;99.90;;;;;;4407775;32;20187;-67
2021/12/20 15:42:03;;;;;;;3.27;1.73;;;-1.90;99.90;;;;;;4406370;32;20448;-68
2021/12/20 15:44:30;;;;;;;3.27;1.70;;;-1.90;99.90;;;;;;4407377;32;20186;-68
2021/12/20 15:46:59;;;;;;;2.20;1.50;;;-2.00;99.90;;;;;;4406124;32;20178;-67
2021/12/20 15:49:26;;;;;;;3.40;1.90;;;-2.00;99.90;;;;;;4410245;32;20418;-67
2021/12/20 15:51:53;;;;;;;4.43;1.77;;;-2.00;99.90;;;;;;4409420;32;20240;-68
2021/12/20 15:54:20;;;;;;;2.20;1.67;;;-2.10;99.90;;;;;;4408399;32;20174;-67
2021/12/20 15:56:48;;;;;;;1.47;1.37;;;-2.10;99.90;;;;;;4408394;32;20183;-67
2021/12/20 15:59:22;;;;;;;3.43;1.73;;;-2.10;99.90;;;;;;4410426;32;20245;-67
2021/12/20 16:01:50;;;;;;;3.10;1.80;;;-2.10;99.90;;;;;;4413251;32;20187;-67
2021/12/20 16:04:17;;;;;;;2.97;1.60;;;-2.10;99.90;;;;;;4418493;32;20151;-67
2021/12/20 16:06:45;;;;;;;3.03;1.70;;;-2.10;99.90;;;;;;4409957;32;20182;-67
2021/12/20 16:09:13;;;;;;;3.20;1.80;;;-2.10;99.90;;;;;;4409830;32;20187;-67
2021/12/20 16:11:43;;;;;;;3.30;1.77;;;-2.10;99.90;;;;;;4408293;32;20202;-67
2021/12/20 16:14:11;;;;;;;2.70;1.80;;;-2.10;99.90;;;;;;4408705;32;20187;-67
2021/12/20 16:16:40;;;;;;;2.53;1.67;;;-2.20;99.90;;;;;;4408848;32;20179;-67
2021/12/20 16:19:09;;;;;;;3.20;1.80;;;-2.10;99.90;;;;;;4409752;32;20205;-67
2021/12/20 16:21:37;;;;;;;5.63;2.00;;;-2.20;99.90;;;;;;4408310;32;20239;-67
2021/12/20 16:24:04;;;;;;;3.33;1.80;;;-2.20;99.90;;;;;;4409296;32;20182;-69
2021/12/20 16:26:32;;;;;;;5.47;2.10;;;-2.20;99.90;;;;;;4410065;32;20249;-66
2021/12/20 16:29:00;;;;;;;5.97;2.00;;;-2.20;99.90;;;;;;4409061;32;20641;-67
2021/12/20 16:31:27;;;;;;;4.10;2.00;;;-2.20;99.90;;;;;;4410080;32;20213;-67
2021/12/20 16:33:55;;;;;;;3.97;1.93;;;-2.20;99.90;;;;;;4396684;32;20435;-67
2021/12/20 16:36:22;;;;;;;3.70;2.27;;;-2.30;99.90;;;;;;4408141;32;20209;-67
2021/12/20 16:38:49;;;;;;;4.67;2.33;;;-2.30;99.90;;;;;;4409347;32;20394;-67
2021/12/20 16:41:16;;;;;;;5.73;2.27;;;-2.30;99.90;;;;;;4408528;32;20419;-66
2021/12/20 16:43:47;;;;;;;3.80;2.47;;;-2.30;99.90;;;;;;4408816;32;20220;-66
2021/12/20 16:46:18;;;;;;;4.93;2.00;;;-2.30;99.90;;;;;;4408567;32;20213;-67
2021/12/20 16:48:59;;;;;;;5.47;2.50;;;-2.30;99.90;;;;;;4407311;32;20441;-66
2021/12/20 16:51:27;;;;;;;4.90;2.40;;;-2.30;99.90;;;;;;4408644;32;20438;-67
2021/12/20 16:54:11;;;;;;;3.77;2.10;;;-2.40;99.90;;;;;;4410286;32;20406;-67
2021/12/20 16:56:44;;;;;;;4.57;2.40;;;-2.40;99.90;;;;;;4409098;32;20194;-67
2021/12/20 16:59:12;;;;;;;5.90;2.60;;;-2.40;99.90;;;;;;4409019;32;20630;-67
2021/12/20 17:01:44;;;;;;;4.60;2.40;;;-2.40;99.90;;;;;;4410875;32;20204;-67
2021/12/20 17:06:58;;;;;;;5.30;3.00;;;-2.40;99.90;;;;;;4413069;32;20414;-67
2021/12/20 17:09:26;;;;;;;5.40;2.87;;;-2.40;99.90;;;;;;4415055;32;20203;-67
2021/12/20 17:11:53;;;;;;;4.77;2.80;;;-2.50;99.90;;;;;;4409093;32;20235;-67
2021/12/20 17:14:20;;;;;;;6.20;2.97;;;-2.50;99.90;;;;;;4408039;32;20562;-67
2021/12/20 17:16:47;;;;;;;6.80;3.10;;;-2.50;99.90;;;;;;4407382;32;20191;-67
2021/12/20 17:19:15;;;;;;;6.23;3.00;;;-2.50;99.90;;;;;;4407581;32;20604;-67
2021/12/20 17:21:42;;;;;;;5.97;2.87;;;-2.50;99.90;;;;;;4408631;32;20179;-67
2021/12/20 17:24:10;;;;;;;5.60;2.57;;;-2.50;99.90;;;;;;4408946;32;20182;-67
2021/12/20 17:26:37;;;;;;;5.80;2.70;;;-2.60;99.90;;;;;;4409361;32;20171;-67
2021/12/20 17:29:04;;;;;;;4.33;2.37;;;-2.60;99.90;;;;;;4409112;32;20532;-67
2021/12/20 17:31:31;;;;;;;6.20;3.57;;;-2.60;99.90;;;;;;4408165;32;20461;-67
2021/12/20 17:33:58;;;;;;;5.90;2.30;;;-2.60;99.90;;;;;;4408959;32;20202;-67
2021/12/20 17:36:25;;;;;;;4.33;2.70;;;-2.60;99.90;;;;;;4410270;32;20254;-66
2021/12/20 17:38:53;;;;;;;3.90;2.37;;;-2.60;99.90;;;;;;4410151;32;20183;-69
2021/12/20 17:41:20;;;;;;;5.37;2.37;;;-2.50;99.90;;;;;;4416450;32;20552;-68
2021/12/20 17:43:47;;;;;;;3.70;2.40;;;-2.50;99.90;;;;;;4407707;32;20182;-68
2021/12/20 17:46:14;;;;;;;3.47;2.20;;;-2.50;99.90;;;;;;4407508;32;20528;-67
2021/12/20 17:48:41;;;;;;;3.63;2.33;;;-2.50;99.90;;;;;;4407662;32;20513;-68
2021/12/20 17:51:09;;;;;;;5.17;2.13;;;-2.50;99.90;;;;;;4408404;32;20490;-67
2021/12/20 17:53:36;;;;;;;4.10;2.23;;;-2.50;99.90;;;;;;4408416;32;20236;-68
2021/12/20 17:56:04;;;;;;;4.07;2.20;;;-2.60;99.90;;;;;;4407324;32;20170;-68
2021/12/20 17:58:31;;;;;;;3.63;2.40;;;-2.60;99.90;;;;;;4407830;32;20224;-68
2021/12/20 18:01:03;;;;;;;4.57;2.63;;;-2.60;99.90;;;;;;4408776;32;20552;-67
2021/12/20 18:03:31;;;;;;;4.00;2.40;;;-2.70;99.90;;;;;;4395361;32;20206;-68
2021/12/20 18:05:59;;;;;;;5.70;2.53;;;-2.70;99.90;;;;;;4406994;32;20518;-68
2021/12/20 18:08:46;;;;;;;4.00;2.37;;;-2.70;99.90;;;;;;4407567;32;20180;-67
2021/12/20 18:11:14;;;;;;;5.17;2.40;;;-2.70;99.90;;;;;;4407739;32;20179;-68
2021/12/20 18:13:43;;;;;;;5.70;2.40;;;-2.70;99.90;;;;;;4408645;32;20397;-67
2021/12/20 18:16:11;;;;;;;4.53;2.50;;;-2.80;99.90;;;;;;4408570;32;20486;-68
2021/12/20 18:18:38;;;;;;;4.80;2.37;;;-2.80;99.90;;;;;;4409665;32;20194;-68
2021/12/20 18:21:05;;;;;;;6.00;2.50;;;-2.80;99.90;;;;;;4407129;32;20283;-67
2021/12/20 18:23:34;;;;;;;3.80;2.20;;;-2.80;99.90;;;;;;4407940;32;20201;-68
2021/12/20 18:26:01;;;;;;;4.10;2.37;;;-2.80;99.90;;;;;;4407483;32;20226;-68
2021/12/20 18:28:28;;;;;;;3.43;2.27;;;-2.90;99.90;;;;;;4407684;32;20174;-68
2021/12/20 18:30:55;;;;;;;5.17;2.43;;;-2.90;99.90;;;;;;4408730;32;20147;-67
2021/12/20 18:33:22;;;;;;;4.13;2.40;;;-2.90;99.90;;;;;;4406533;32;20582;-68
2021/12/20 18:35:50;;;;;;;5.50;2.50;;;-2.90;99.90;;;;;;4406591;32;20179;-68
2021/12/20 18:38:34;;;;;;;6.13;2.57;;;-2.90;99.90;;;;;;4407185;32;20378;-68
2021/12/20 18:41:02;;;;;;;5.53;2.47;;;-2.90;99.90;;;;;;4407184;32;20241;-68
2021/12/20 18:43:29;;;;;;;5.97;2.47;;;-2.90;99.90;;;;;;4407504;32;20182;-68
2021/12/20 18:45:57;;;;;;;5.60;2.43;;;-2.90;99.90;;;;;;4407646;32;20253;-68
2021/12/20 18:48:29;;;;;;;5.07;2.80;;;-2.90;99.90;;;;;;4407571;32;20167;-68
2021/12/20 18:50:59;;;;;;;5.10;2.87;;;-3.00;99.90;;;;;;4408144;32;20220;-67
2021/12/20 18:53:30;;;;;;;4.80;2.80;;;-3.00;99.90;;;;;;4407533;32;20183;-67
2021/12/20 18:55:58;;;;;;;5.13;2.57;;;-3.00;99.90;;;;;;4406926;32;20191;-67
2021/12/20 18:58:26;;;;;;;4.47;2.57;;;-3.00;99.90;;;;;;4408266;32;20404;-67
2021/12/20 19:00:55;;;;;;;4.80;2.43;;;-3.00;99.90;;;;;;4406908;32;20221;-68
2021/12/20 19:03:26;;;;;;;5.33;2.63;;;-3.00;99.90;;;;;;4406677;32;20183;-67
2021/12/20 19:06:22;;;;;;;4.03;2.60;;;-3.00;99.90;;;;;;4407724;32;20226;-67
2021/12/20 19:08:56;;;;;;;4.43;2.43;;;-3.00;99.90;;;;;;4406673;32;20447;-67
2021/12/20 19:14:15;;;;;;;4.17;2.30;;;-3.00;99.90;;;;;;4407723;32;20156;-68
2021/12/20 19:17:04;;;;;;;4.17;2.20;;;-3.00;99.90;;;;;;4406997;32;20275;-68
2021/12/20 19:19:42;;;;;;;4.53;2.47;;;-3.10;99.90;;;;;;4406233;32;20532;-68
2021/12/20 19:22:13;;;;;;;3.73;2.50;;;-3.10;99.90;;;;;;4407595;32;20174;-68
2021/12/20 19:24:54;;;;;;;6.20;2.10;;;-3.10;99.90;;;;;;4411248;32;20429;-68
2021/12/20 19:27:22;;;;;;;5.37;2.33;;;-3.10;99.90;;;;;;4410114;32;20230;-68
2021/12/20 19:29:55;;;;;;;5.93;2.67;;;-3.20;99.90;;;;;;4410171;32;20197;-68
2021/12/20 19:32:23;;;;;;;4.23;2.27;;;-3.20;99.90;;;;;;4410004;32;20212;-68
2021/12/20 19:34:50;;;;;;;3.87;1.90;;;-3.20;99.90;;;;;;4410035;32;20225;-68
2021/12/20 19:37:18;;;;;;;2.47;1.90;;;-3.20;99.90;;;;;;4409681;32;20172;-67
2021/12/20 19:39:45;;;;;;;2.93;2.07;;;-3.20;99.90;;;;;;4411147;32;20587;-67
2021/12/20 19:42:17;;;;;;;4.70;2.00;;;-3.20;99.90;;;;;;4409552;32;20179;-68
2021/12/20 19:44:45;;;;;;;3.70;1.93;;;-3.20;99.90;;;;;;4410858;32;20226;-68
2021/12/20 19:47:13;;;;;;;2.43;1.90;;;-3.30;99.90;;;;;;4409747;32;20205;-67
2021/12/20 19:49:41;;;;;;;3.60;2.10;;;-3.20;99.90;;;;;;4411050;32;20204;-67
2021/12/20 19:52:29;;;;;;;3.70;2.10;;;-3.20;99.90;;;;;;4410630;32;20196;-67
2021/12/20 19:54:57;;;;;;;2.87;2.03;;;-3.20;99.90;;;;;;4409616;32;20237;-67
2021/12/20 19:57:25;;;;;;;3.60;2.07;;;-3.30;99.90;;;;;;4410839;32;20262;-67
2021/12/20 19:59:52;;;;;;;2.83;2.03;;;-3.30;99.90;;;;;;4409657;32;20163;-67
2021/12/20 20:02:27;;;;;;;4.03;2.17;;;-3.30;99.90;;;;;;4410179;32;20210;-67
2021/12/20 20:04:57;;;;;;;4.20;2.47;;;-3.30;99.90;;;;;;4411048;32;20171;-68
2021/12/20 20:07:25;;;;;;;3.53;2.10;;;-3.30;99.90;;;;;;4410465;32;20182;-68
2021/12/20 20:10:20;;;;;;;5.37;2.20;;;-3.30;99.90;;;;;;4409732;32;20221;-68
2021/12/20 20:12:48;;;;;;;6.57;2.40;;;-3.30;99.90;;;;;;4409866;32;20191;-68
2021/12/20 20:15:16;;;;;;;5.27;2.33;;;-3.30;99.90;;;;;;4409142;32;20206;-67
2021/12/20 20:17:43;;;;;;;3.57;2.33;;;-3.40;99.90;;;;;;4410182;32;20144;-67
2021/12/20 20:20:30;;;;;;;7.53;2.60;;;-3.40;99.90;;;;;;4409675;32;20171;-67
2021/12/20 20:22:58;;;;;;;5.37;2.70;;;-3.40;99.90;;;;;;4409006;32;20191;-67
2021/12/20 20:25:31;;;;;;;4.40;2.60;;;-3.50;99.90;;;;;;4410340;32;20264;-67
2021/12/20 20:28:26;;;;;;;5.27;2.97;;;-3.50;99.90;;;;;;4408881;32;20224;-67
2021/12/20 20:31:00;;;;;;;5.70;3.00;;;-3.50;99.90;;;;;;4411328;32;20132;-67
2021/12/20 20:33:47;;;;;;;7.20;2.83;;;-3.50;99.90;;;;;;4407991;32;20293;-67
2021/12/20 20:36:31;;;;;;;4.83;3.00;;;-3.50;99.90;;;;;;4408293;32;20602;-67
2021/12/20 20:39:26;;;;;;;4.80;2.80;;;-3.50;99.90;;;;;;4409360;32;20510;-68
2021/12/20 20:42:06;;;;;;;4.97;2.50;;;-3.50;99.90;;;;;;4379231;32;20180;-68
2021/12/20 20:44:40;;;;;;;4.80;2.87;;;-3.50;99.90;;;;;;4393176;32;20167;-68
2021/12/20 20:47:26;;;;;;;6.13;2.70;;;-3.50;99.90;;;;;;4380171;32;20178;-68
2021/12/20 20:50:22;;;;;;;5.63;3.07;;;-3.50;99.90;;;;;;4393052;32;20240;-68
2021/12/20 20:52:53;;;;;;;5.10;2.70;;;-3.50;99.90;;;;;;4393175;32;20145;-67
2021/12/20 20:55:32;;;;;;;5.53;2.80;;;-3.50;99.90;;;;;;4394418;32;20160;-67
2021/12/20 20:58:03;;;;;;;4.20;2.50;;;-3.50;99.90;;;;;;4393308;32;20599;-68
2021/12/20 21:03:43;;;;;;;7.30;3.00;;;-3.60;99.90;;;;;;4379661;32;20277;-67
2021/12/20 21:06:22;;;;;;;;;;;;;;;;;;;;;
2021/12/20 21:09:13;;;;;;;8.33;3.80;;;-3.60;99.90;;;;;;4379304;32;20175;-67
2021/12/20 21:12:24;;;;;;;8.07;3.77;;;-3.60;99.90;;;;;;4382607;32;20337;-68
2021/12/20 21:15:06;;;;;;;9.37;3.60;;;-3.60;99.90;;;;;;4379874;32;20529;-68
2021/12/20 21:17:54;;;;;;;8.93;3.87;;;-3.60;99.90;;;;;;4380114;32;20193;-67
2021/12/20 21:20:35;;;;;;;8.33;3.83;;;-3.60;99.90;;;;;;4409258;32;20183;-67
2021/12/20 21:23:16;;;;;;;9.27;3.90;;;-3.50;99.90;;;;;;4406946;32;20212;-67
2021/12/20 21:25:49;;;;;;;8.97;4.10;;;-3.60;99.90;;;;;;4409202;32;20171;-67
2021/12/20 21:28:31;;;;;;;8.47;3.90;;;-3.60;99.90;;;;;;4408921;32;20246;-68
2021/12/20 21:31:02;;;;;;;11.27;4.40;;;-3.60;99.90;;;;;;4407688;32;20212;-67
2021/12/20 21:33:38;;;;;;;12.17;4.67;;;-3.70;99.90;;;;;;4407408;32;20236;-68
2021/12/20 21:36:23;;;;;;;11.97;4.73;;;-3.70;99.90;;;;;;4408280;32;20179;-67
2021/12/20 21:38:54;;;;;;;8.83;4.30;;;-3.60;99.90;;;;;;4407168;32;20263;-67
2021/12/20 21:41:30;;;;;;;13.77;5.20;;;-3.70;99.90;;;;;;4407611;32;20210;-68
2021/12/20 21:43:57;;;;;;;9.70;4.90;;;-3.70;99.90;;;;;;4407774;32;20208;-68
2021/12/20 21:46:25;;;;;;;12.27;5.63;;;-3.70;99.90;;;;;;4407023;32;20184;-68
2021/12/20 21:49:02;;;;;;;10.13;5.00;;;-3.70;99.90;;;;;;4409193;32;20187;-68
2021/12/20 21:51:31;;;;;;;11.57;4.87;;;-3.70;99.90;;;;;;4410179;32;20377;-67
2021/12/20 21:54:15;;;;;;;11.37;4.80;;;-3.70;99.90;;;;;;4410068;32;20159;-68
2021/12/20 21:56:44;;;;;;;9.20;4.80;;;-3.70;99.90;;;;;;4408545;32;20237;-68
2021/12/20 21:59:14;;;;;;;11.90;4.83;;;-3.60;99.90;;;;;;4409718;32;20389;-68
2021/12/20 22:01:42;;;;;;;10.67;5.13;;;-3.60;99.90;;;;;;4407282;32;20234;-68
2021/12/20 22:04:12;;;;;;;13.47;4.87;;;-3.60;99.90;;;;;;4408935;32;20175;-68
2021/12/20 22:06:45;;;;;;;9.70;4.90;;;-3.60;99.90;;;;;;4408672;32;20176;-67
2021/12/20 22:09:16;;;;;;;11.13;5.10;;;-3.50;99.90;;;;;;4408767;32;20172;-68
2021/12/20 22:11:45;;;;;;;10.40;4.87;;;-3.40;99.90;;;;;;4408377;32;20241;-67
2021/12/20 22:14:16;;;;;;;9.80;4.37;;;-3.30;99.90;;;;;;4407274;32;20206;-67
2021/12/20 22:16:46;;;;;;;12.50;5.37;;;-3.30;99.90;;;;;;4408518;32;20574;-67
2021/12/20 22:19:17;;;;;;;12.43;4.90;;;-3.30;99.90;;;;;;4407847;32;20164;-68
2021/12/20 22:21:56;;;;;;;12.50;5.27;;;-3.20;99.90;;;;;;4407002;32;20205;-68
2021/12/20 22:24:24;;;;;;;15.20;5.47;;;-3.20;99.90;;;;;;4408314;32;20163;-67
2021/12/20 22:26:52;;;;;;;13.10;5.83;;;-3.20;99.90;;;;;;4409062;32;20261;-68
2021/12/20 22:29:20;;;;;;;13.57;6.13;;;-3.20;99.90;;;;;;4407345;32;20213;-68
2021/12/20 22:31:51;;;;;;;11.57;5.60;;;-3.20;99.90;;;;;;4408700;32;20401;-67
2021/12/20 22:34:18;;;;;;;12.23;5.93;;;-3.10;99.90;;;;;;4407142;32;20175;-67
2021/12/20 22:36:46;;;;;;;12.70;6.20;;;-3.10;99.90;;;;;;4407211;32;20221;-67
2021/12/20 22:39:15;;;;;;;12.20;6.03;;;-3.00;99.90;;;;;;4408202;32;20175;-67
2021/12/20 22:41:43;;;;;;;16.60;6.27;;;-3.00;99.90;;;;;;4408839;32;20273;-67
2021/12/20 22:44:11;;;;;;;11.27;5.40;;;-2.90;99.90;;;;;;4406552;32;20202;-67
2021/12/20 22:46:41;;;;;;;13.60;5.80;;;-2.90;99.90;;;;;;4407020;32;20221;-68
2021/12/20 22:49:12;;;;;;;9.47;5.27;;;-2.80;99.90;;;;;;4408341;32;20183;-68
2021/12/20 22:51:41;;;;;;;13.00;5.40;;;-2.70;99.90;;;;;;4407652;32;20249;-67
2021/12/20 22:54:09;;;;;;;12.70;5.17;;;-2.60;99.90;;;;;;4407391;32;20239;-67
2021/12/20 22:56:40;;;;;;;12.17;5.50;;;-2.50;99.90;;;;;;4407549;32;20201;-68
2021/12/20 22:59:10;;;;;;;11.40;5.63;;;-2.50;99.90;;;;;;4407314;32;20584;-68
2021/12/20 23:01:38;;;;;;;11.23;5.70;;;-2.40;99.90;;;;;;4408074;32;20174;-68
2021/12/20 23:04:09;;;;;;;11.20;5.70;;;-2.40;99.90;;;;;;4407800;32;20188;-68
2021/12/20 23:06:42;;;;;;;13.17;5.57;;;-2.40;99.90;;;;;;4406721;32;20167;-68
2021/12/20 23:09:11;;;;;;;10.60;4.97;;;-2.50;99.90;;;;;;4408084;32;20228;-67
2021/12/20 23:11:38;;;;;;;11.67;5.37;;;-2.50;99.90;;;;;;4408195;32;20172;-67
2021/12/20 23:16:46;;;;;;;7.77;4.30;;;-2.50;99.90;;;;;;4407376;32;20177;-67
2021/12/20 23:19:23;;;;;;;9.47;4.87;;;-2.40;99.90;;;;;;4408444;32;20260;-68
2021/12/20 23:21:53;;;;;;;9.97;5.13;;;-2.40;99.90;;;;;;4406521;32;20240;-68
2021/12/20 23:24:24;;;;;;;11.70;5.30;;;-2.40;99.90;;;;;;4407303;32;20198;-68
2021/12/20 23:26:58;;;;;;;10.80;4.67;;;-2.30;99.90;;;;;;4408693;32;20139;-68
2021/12/20 23:29:38;;;;;;;10.20;5.30;;;-2.30;99.90;;;;;;4407224;32;20241;-67
2021/12/20 23:32:11;;;;;;;11.03;4.83;;;-2.40;99.90;;;;;;4406640;32;20244;-68
2021/12/20 23:34:42;;;;;;;11.60;4.67;;;-2.40;99.90;;;;;;4407145;32;20254;-68
2021/12/20 23:37:12;;;;;;;14.40;4.97;;;-2.40;99.90;;;;;;4407992;32;20251;-68
2021/12/20 23:39:44;;;;;;;9.63;4.53;;;-2.30;99.90;;;;;;4406032;32;20202;-69
2021/12/20 23:42:18;;;;;;;9.97;4.67;;;-2.30;99.90;;;;;;4413135;32;20178;-67
2021/12/20 23:45:31;;;;;;;10.30;5.10;;;-2.30;99.90;;;;;;4395435;32;20155;-66
